createdAt,value
2022-10-09T00:02:20.990Z,13.80
2022-10-09T00:04:56.215Z,9.80
2022-10-09T00:07:26.437Z,10.43
2022-10-09T00:09:56.519Z,9.20
2022-10-09T00:12:26.673Z,9.95
2022-10-09T00:14:56.753Z,10.18
2022-10-09T00:17:26.904Z,11.35
2022-10-09T00:19:59.663Z,10.40
2022-10-09T00:22:29.772Z,10.70
2022-10-09T00:24:59.971Z,11.73
2022-10-09T00:27:30.186Z,10.45
2022-10-09T00:30:00.290Z,9.60
2022-10-09T00:32:30.711Z,13.20
2022-10-09T00:35:03.446Z,10.98
2022-10-09T00:37:33.713Z,11.32
2022-10-09T00:40:03.822Z,9.10
2022-10-09T00:42:34.042Z,11.57
2022-10-09T00:45:06.164Z,12.00
2022-10-09T00:47:41.172Z,14.32
2022-10-09T00:50:19.423Z,12.00
2022-10-09T00:52:52.343Z,11.57
2022-10-09T00:55:24.530Z,10.27
2022-10-09T00:57:56.840Z,10.52
2022-10-09T01:00:27.536Z,14.32
2022-10-09T01:02:58.251Z,10.40
2022-10-09T01:05:45.930Z,11.65
2022-10-09T01:08:23.291Z,11.57
2022-10-09T01:11:02.174Z,11.50
2022-10-09T01:13:40.051Z,12.40
2022-10-09T01:16:22.846Z,10.68
2022-10-09T01:19:00.921Z,12.15
2022-10-09T01:21:38.981Z,9.75
2022-10-09T01:24:24.319Z,11.15
2022-10-09T01:27:07.362Z,10.15
2022-10-09T01:29:41.245Z,14.25
2022-10-09T01:32:14.174Z,11.35
2022-10-09T01:34:47.418Z,10.57
2022-10-09T01:37:19.634Z,11.02
2022-10-09T01:39:51.387Z,10.50
2022-10-09T01:42:26.733Z,10.80
2022-10-09T01:44:56.898Z,10.48
2022-10-09T01:47:27.434Z,11.82
2022-10-09T01:50:05.081Z,16.17
2022-10-09T01:52:43.778Z,9.98
2022-10-09T01:55:33.601Z,13.32
2022-10-09T01:58:12.953Z,12.70
2022-10-09T02:00:48.004Z,11.70
2022-10-09T02:03:19.686Z,11.55
2022-10-09T02:05:52.841Z,10.27
2022-10-09T02:08:25.180Z,11.30
2022-10-09T02:10:59.450Z,12.65
2022-10-09T02:13:33.521Z,12.45
2022-10-09T02:18:41.422Z,9.77
2022-10-09T02:21:17.207Z,12.77
2022-10-09T02:23:51.382Z,12.43
2022-10-09T02:26:22.235Z,11.60
2022-10-09T02:28:55.343Z,11.90
2022-10-09T02:31:29.174Z,12.23
2022-10-09T02:34:00.136Z,10.63
2022-10-09T02:36:31.187Z,13.93
2022-10-09T02:39:02.058Z,11.55
2022-10-09T02:41:32.185Z,13.43
2022-10-09T02:44:05.230Z,15.52
2022-10-09T02:46:38.670Z,12.10
2022-10-09T02:49:09.661Z,17.13
2022-10-09T02:51:39.810Z,12.10
2022-10-09T02:54:10.196Z,10.85
2022-10-09T02:56:40.346Z,14.93
2022-10-09T02:59:13.249Z,13.73
2022-10-09T03:02:07.249Z,10.40
2022-10-09T03:04:37.390Z,11.75
2022-10-09T03:07:07.505Z,13.90
2022-10-09T03:09:37.652Z,12.07
2022-10-09T03:12:08.368Z,12.00
2022-10-09T03:14:41.023Z,13.95
2022-10-09T03:17:11.147Z,11.07
2022-10-09T03:19:41.360Z,15.82
2022-10-09T03:22:11.408Z,11.90
2022-10-09T03:24:41.512Z,12.02
2022-10-09T03:27:11.645Z,16.23
2022-10-09T03:29:44.357Z,10.95
2022-10-09T03:32:14.591Z,13.73
2022-10-09T03:34:44.763Z,11.32
2022-10-09T03:37:14.876Z,14.25
2022-10-09T03:39:45.102Z,14.45
2022-10-09T03:42:15.318Z,14.68
2022-10-09T03:44:48.043Z,12.18
2022-10-09T03:47:18.212Z,11.65
2022-10-09T03:49:48.499Z,11.80
2022-10-09T03:52:18.654Z,17.45
2022-10-09T03:54:48.776Z,15.23
2022-10-09T03:57:18.851Z,12.85
2022-10-09T03:59:51.729Z,12.73
2022-10-09T04:02:21.875Z,13.63
2022-10-09T04:04:52.032Z,14.70
2022-10-09T04:07:25.807Z,13.93
2022-10-09T04:10:00.264Z,13.30
2022-10-09T04:12:30.450Z,14.57
2022-10-09T04:15:03.507Z,12.80
2022-10-09T04:17:34.338Z,12.52
2022-10-09T04:20:05.257Z,11.65
2022-10-09T04:22:36.174Z,11.82
2022-10-09T04:25:06.498Z,11.23
2022-10-09T04:27:36.718Z,11.02
2022-10-09T04:30:13.649Z,13.57
2022-10-09T04:32:43.869Z,11.20
2022-10-09T04:35:19.541Z,14.50
2022-10-09T04:37:49.590Z,13.27
2022-10-09T04:40:19.793Z,14.32
2022-10-09T04:42:50.127Z,12.02
2022-10-09T04:45:23.242Z,14.43
2022-10-09T04:47:53.831Z,13.73
2022-10-09T04:50:23.927Z,12.02
2022-10-09T04:52:57.649Z,12.50
2022-10-09T04:55:27.862Z,15.55
2022-10-09T04:57:58.048Z,12.57
2022-10-09T05:00:30.792Z,14.73
2022-10-09T05:03:01.048Z,14.05
2022-10-09T05:05:31.180Z,11.65
2022-10-09T05:08:01.361Z,12.43
2022-10-09T05:10:31.396Z,13.07
2022-10-09T05:13:01.806Z,13.50
2022-10-09T05:15:38.742Z,13.68
2022-10-09T05:18:09.017Z,15.05
2022-10-09T05:20:43.495Z,13.98
2022-10-09T05:23:13.680Z,13.32
2022-10-09T05:25:43.745Z,14.77
2022-10-09T05:28:14.041Z,14.07
2022-10-09T05:30:46.952Z,14.20
2022-10-09T05:33:17.155Z,15.45
2022-10-09T05:35:54.381Z,12.23
2022-10-09T05:38:25.404Z,14.10
2022-10-09T05:40:56.613Z,13.18
2022-10-09T05:43:27.883Z,15.85
2022-10-09T05:46:07.972Z,17.10
2022-10-09T05:48:38.748Z,15.68
2022-10-09T05:51:13.554Z,13.52
2022-10-09T05:53:45.207Z,13.05
2022-10-09T05:56:17.875Z,13.35
2022-10-09T05:58:52.896Z,12.43
2022-10-09T06:01:29.125Z,14.75
2022-10-09T06:04:01.273Z,12.60
2022-10-09T06:06:33.479Z,15.18
2022-10-09T06:09:03.624Z,15.05
2022-10-09T06:11:35.652Z,13.00
2022-10-09T06:14:09.077Z,15.68
2022-10-09T06:16:43.384Z,16.33
2022-10-09T06:19:15.031Z,12.05
2022-10-09T06:21:45.920Z,13.70
2022-10-09T06:24:26.950Z,16.48
2022-10-09T06:26:58.744Z,16.17
2022-10-09T06:29:30.250Z,12.85
2022-10-09T06:32:02.959Z,13.55
2022-10-09T06:34:33.065Z,15.25
2022-10-09T06:37:03.188Z,12.30
2022-10-09T06:39:33.355Z,11.20
2022-10-09T06:42:04.318Z,17.15
2022-10-09T06:44:34.474Z,16.10
2022-10-09T06:47:07.321Z,12.93
2022-10-09T06:49:37.465Z,14.35
2022-10-09T06:52:07.794Z,14.20
2022-10-09T06:54:38.086Z,15.80
2022-10-09T06:57:08.203Z,14.57
2022-10-09T06:59:38.324Z,24.60
2022-10-09T07:02:11.877Z,22.33
2022-10-09T07:04:42.107Z,14.98
2022-10-09T07:07:12.262Z,14.35
2022-10-09T07:09:43.243Z,10.40
2022-10-09T07:12:13.487Z,10.65
2022-10-09T07:14:43.561Z,14.35
2022-10-09T07:17:16.255Z,11.13
2022-10-09T07:19:46.488Z,11.30
2022-10-09T07:22:16.577Z,12.68
2022-10-09T07:24:46.685Z,12.55
2022-10-09T07:27:16.794Z,12.95
2022-10-09T07:29:47.046Z,13.55
2022-10-09T07:32:19.689Z,16.02
2022-10-09T07:34:49.803Z,11.15
2022-10-09T07:37:20.226Z,10.20
2022-10-09T07:39:53.825Z,10.90
2022-10-09T07:42:23.889Z,11.35
2022-10-09T07:44:54.055Z,12.00
2022-10-09T07:47:29.866Z,9.63
2022-10-09T07:50:00.091Z,10.63
2022-10-09T07:52:30.484Z,10.52
2022-10-09T07:55:00.689Z,7.57
2022-10-09T07:57:30.922Z,9.95
2022-10-09T08:00:03.218Z,8.13
2022-10-09T08:02:36.423Z,8.75
2022-10-09T08:05:07.260Z,8.80
2022-10-09T08:07:37.446Z,8.90
2022-10-09T08:10:08.305Z,12.02
2022-10-09T08:12:38.562Z,7.35
2022-10-09T08:15:10.386Z,7.18
2022-10-09T08:17:43.234Z,11.88
2022-10-09T08:20:13.323Z,9.13
2022-10-09T08:22:43.412Z,9.73
2022-10-09T08:25:13.475Z,9.18
2022-10-09T08:27:43.601Z,11.75
2022-10-09T08:30:15.615Z,8.95
2022-10-09T08:32:48.538Z,8.82
2022-10-09T08:35:18.951Z,8.30
2022-10-09T08:37:49.099Z,10.00
2022-10-09T08:40:24.926Z,10.65
2022-10-09T08:43:01.854Z,7.68
2022-10-09T08:45:33.587Z,8.60
2022-10-09T08:48:11.175Z,7.15
2022-10-09T08:50:44.135Z,7.35
2022-10-09T08:53:21.543Z,7.13
2022-10-09T08:55:56.751Z,9.10
2022-10-09T08:58:30.265Z,8.55
2022-10-09T09:01:07.932Z,7.03
2022-10-09T09:03:56.346Z,7.30
2022-10-09T09:06:40.219Z,8.95
2022-10-09T09:11:52.840Z,8.30
2022-10-09T09:14:38.142Z,7.20
2022-10-09T09:17:15.361Z,8.48
2022-10-09T09:19:58.740Z,7.43
2022-10-09T09:22:29.745Z,8.00
2022-10-09T09:25:01.580Z,11.15
2022-10-09T09:27:35.184Z,6.93
2022-10-09T09:30:17.557Z,7.38
2022-10-09T09:32:58.477Z,9.05
2022-10-09T09:35:47.041Z,7.63
2022-10-09T09:38:18.044Z,10.35
2022-10-09T09:40:50.900Z,8.15
2022-10-09T09:43:23.452Z,6.93
2022-10-09T09:45:56.457Z,8.70
2022-10-09T09:48:35.872Z,7.77
2022-10-09T09:51:28.093Z,8.88
2022-10-09T09:54:01.708Z,11.30
2022-10-09T09:57:10.332Z,9.05
2022-10-09T09:59:36.751Z,9.65
2022-10-09T10:02:15.913Z,9.70
2022-10-09T10:04:54.451Z,9.45
2022-10-09T10:07:38.499Z,9.38
2022-10-09T10:10:10.697Z,7.78
2022-10-09T10:12:44.066Z,8.35
2022-10-09T10:15:26.804Z,8.10
2022-10-09T10:18:05.066Z,8.55
2022-10-09T10:20:37.056Z,8.55
2022-10-09T10:23:25.693Z,8.07
2022-10-09T10:25:58.682Z,8.07
2022-10-09T10:28:37.739Z,6.50
2022-10-09T10:31:18.978Z,7.38
2022-10-09T10:33:56.947Z,9.63
2022-10-09T10:36:30.326Z,7.55
2022-10-09T10:39:11.268Z,8.90
2022-10-09T10:41:46.016Z,7.00
2022-10-09T10:44:24.791Z,7.88
2022-10-09T10:47:00.292Z,6.40
2022-10-09T10:49:33.862Z,9.10
2022-10-09T10:52:20.021Z,8.30
2022-10-09T10:55:00.931Z,9.25
2022-10-09T11:04:38.628Z,6.38
2022-10-09T11:07:19.662Z,10.10
2022-10-09T11:10:05.128Z,8.35
2022-10-09T11:12:48.722Z,7.15
2022-10-09T11:15:26.370Z,6.80
2022-10-09T11:18:08.788Z,7.05
2022-10-09T11:21:06.625Z,8.85
2022-10-09T11:23:48.169Z,7.30
2022-10-09T11:26:29.733Z,7.60
2022-10-09T11:29:03.747Z,6.13
2022-10-09T11:31:39.743Z,6.88
2022-10-09T11:34:21.437Z,7.20
2022-10-09T11:36:51.795Z,7.70
2022-10-09T11:39:23.986Z,7.25
2022-10-09T11:42:02.473Z,8.82
2022-10-09T11:44:42.891Z,5.82
2022-10-09T11:47:21.321Z,5.88
2022-10-09T11:50:16.425Z,8.15
2022-10-09T11:52:53.931Z,6.60
2022-10-09T11:55:26.899Z,5.15
2022-10-09T11:58:15.100Z,9.88
2022-10-09T12:00:46.017Z,9.38
2022-10-09T12:03:33.804Z,7.10
2022-10-09T12:06:10.731Z,7.13
2022-10-09T12:08:42.481Z,5.28
2022-10-09T12:11:18.224Z,6.93
2022-10-09T12:13:55.749Z,6.45
2022-10-09T12:16:37.610Z,7.88
2022-10-09T12:19:16.722Z,5.63
2022-10-09T12:21:53.087Z,5.35
2022-10-09T12:24:28.034Z,5.68
2022-10-09T12:27:03.356Z,5.00
2022-10-09T12:29:42.867Z,7.22
2022-10-09T12:32:20.079Z,5.85
2022-10-09T12:34:52.824Z,5.53
2022-10-09T12:37:24.825Z,7.53
2022-10-09T12:39:55.081Z,6.32
2022-10-09T12:42:27.350Z,7.05
2022-10-09T12:45:00.633Z,6.38
2022-10-09T12:47:33.050Z,6.20
2022-10-09T12:50:15.445Z,5.85
2022-10-09T12:52:52.450Z,6.25
2022-10-09T12:55:28.696Z,6.13
2022-10-09T12:58:03.548Z,7.25
2022-10-09T13:00:40.045Z,4.95
2022-10-09T13:03:27.110Z,6.10
2022-10-09T13:06:00.423Z,6.18
2022-10-09T13:08:33.937Z,6.40
2022-10-09T13:13:42.866Z,5.53
2022-10-09T13:16:15.670Z,5.63
2022-10-09T13:18:46.151Z,6.07
2022-10-09T13:21:32.712Z,5.25
2022-10-09T13:24:13.399Z,7.55
2022-10-09T13:26:46.774Z,4.80
2022-10-09T13:29:17.498Z,4.55
2022-10-09T13:31:50.579Z,4.88
2022-10-09T13:34:23.799Z,11.48
2022-10-09T13:36:54.063Z,5.72
2022-10-09T13:39:24.342Z,4.53
2022-10-09T13:41:57.484Z,6.88
2022-10-09T13:44:27.602Z,5.78
2022-10-09T13:47:00.667Z,7.40
2022-10-09T13:49:30.846Z,5.75
2022-10-09T13:52:01.076Z,6.22
2022-10-09T13:54:31.428Z,5.43
2022-10-09T13:57:01.659Z,3.95
2022-10-09T13:59:32.480Z,5.20
2022-10-09T14:02:05.277Z,7.68
2022-10-09T14:04:35.514Z,4.20
2022-10-09T14:07:05.766Z,4.75
2022-10-09T14:09:36.019Z,4.60
2022-10-09T14:12:06.327Z,5.35
2022-10-09T14:14:36.506Z,7.60
2022-10-09T14:17:09.307Z,5.95
2022-10-09T14:19:39.713Z,4.97
2022-10-09T14:22:09.873Z,5.88
2022-10-09T14:24:41.041Z,5.13
2022-10-09T14:27:11.158Z,9.07
2022-10-09T14:29:41.878Z,5.72
2022-10-09T14:32:15.029Z,4.55
2022-10-09T14:34:45.189Z,4.50
2022-10-09T14:37:29.741Z,4.07
2022-10-09T14:40:06.598Z,6.40
2022-10-09T14:42:36.775Z,5.75
2022-10-09T14:45:07.992Z,4.50
2022-10-09T14:47:40.765Z,4.53
2022-10-09T14:50:12.271Z,5.32
2022-10-09T14:52:42.436Z,3.90
2022-10-09T14:55:12.759Z,5.25
2022-10-09T14:57:43.785Z,5.32
2022-10-09T15:00:15.737Z,5.38
2022-10-09T15:02:48.476Z,5.32
2022-10-09T15:05:18.775Z,4.10
2022-10-09T15:07:49.264Z,6.40
2022-10-09T15:10:19.694Z,4.18
2022-10-09T15:12:49.795Z,5.20
2022-10-09T15:15:20.054Z,4.10
2022-10-09T15:17:52.957Z,4.85
2022-10-09T15:20:26.129Z,4.00
2022-10-09T15:22:56.300Z,5.80
2022-10-09T15:25:31.264Z,5.18
2022-10-09T15:28:03.347Z,4.15
2022-10-09T15:30:33.883Z,4.25
2022-10-09T15:33:06.973Z,4.35
2022-10-09T15:35:39.196Z,7.30
2022-10-09T15:38:09.477Z,6.20
2022-10-09T15:40:46.732Z,5.18
2022-10-09T15:43:18.800Z,7.57
2022-10-09T15:45:49.465Z,5.75
2022-10-09T15:48:24.109Z,5.50
2022-10-09T15:50:54.643Z,4.38
2022-10-09T15:53:26.811Z,7.32
2022-10-09T15:55:59.292Z,4.82
2022-10-09T15:58:29.429Z,5.03
2022-10-09T16:01:04.917Z,5.38
2022-10-09T16:03:38.214Z,6.00
2022-10-09T16:06:11.214Z,5.07
2022-10-09T16:08:42.059Z,3.80
2022-10-09T16:11:14.886Z,4.82
2022-10-09T16:13:46.713Z,4.75
2022-10-09T16:16:19.872Z,4.28
2022-10-09T16:18:53.413Z,3.80
2022-10-09T16:21:27.484Z,4.00
2022-10-09T16:26:31.193Z,4.75
2022-10-09T16:29:04.225Z,6.47
2022-10-09T16:31:36.497Z,4.68
2022-10-09T16:34:09.924Z,3.13
2022-10-09T16:36:40.104Z,7.15
2022-10-09T16:39:10.335Z,4.45
2022-10-09T16:41:42.120Z,4.93
2022-10-09T16:44:17.121Z,3.47
2022-10-09T16:46:47.377Z,5.75
2022-10-09T16:49:22.916Z,4.00
2022-10-09T16:51:55.493Z,4.78
2022-10-09T16:54:26.069Z,3.53
2022-10-09T16:56:56.256Z,3.88
2022-10-09T16:59:26.357Z,3.30
2022-10-09T17:01:57.417Z,5.72
2022-10-09T17:04:30.073Z,3.78
2022-10-09T17:07:03.060Z,5.70
2022-10-09T17:09:34.341Z,2.53
2022-10-09T17:12:04.557Z,3.83
2022-10-09T17:14:35.736Z,4.13
2022-10-09T17:17:05.948Z,2.97
2022-10-09T17:19:39.514Z,4.80
2022-10-09T17:22:09.673Z,3.87
2022-10-09T17:24:39.857Z,4.90
2022-10-09T17:27:10.214Z,5.78
2022-10-09T17:29:40.581Z,4.82
2022-10-09T17:32:15.828Z,5.18
2022-10-09T17:34:48.747Z,4.20
2022-10-09T17:37:18.938Z,3.70
2022-10-09T17:39:52.241Z,5.25
2022-10-09T17:42:25.242Z,4.28
2022-10-09T17:44:55.417Z,5.00
2022-10-09T17:47:25.623Z,4.43
2022-10-09T17:49:58.463Z,4.93
2022-10-09T17:52:28.824Z,5.10
2022-10-09T17:54:58.983Z,5.28
2022-10-09T17:57:31.939Z,4.93
2022-10-09T18:00:02.152Z,4.10
2022-10-09T18:02:32.393Z,5.07
2022-10-09T18:05:05.227Z,4.25
2022-10-09T18:07:38.848Z,4.68
2022-10-09T18:10:10.216Z,5.40
2022-10-09T18:12:40.296Z,4.15
2022-10-09T18:15:11.607Z,4.75
2022-10-09T18:17:41.987Z,5.97
2022-10-09T18:20:14.805Z,5.18
2022-10-09T18:22:44.971Z,4.72
2022-10-09T18:25:15.093Z,4.88
2022-10-09T18:27:47.748Z,6.28
2022-10-09T18:30:20.750Z,5.47
2022-10-09T18:32:51.423Z,2.58
2022-10-09T18:35:25.644Z,6.32
2022-10-09T18:37:56.279Z,4.75
2022-10-09T18:40:26.375Z,3.80
2022-10-09T18:42:56.503Z,3.38
2022-10-09T18:45:26.991Z,4.32
2022-10-09T18:47:57.267Z,3.63
2022-10-09T18:50:30.701Z,4.00
2022-10-09T18:53:04.045Z,3.55
2022-10-09T18:55:34.496Z,2.72
2022-10-09T18:58:07.439Z,3.60
2022-10-09T19:00:40.302Z,3.92
2022-10-09T19:03:10.637Z,3.80
2022-10-09T19:05:45.048Z,5.15
2022-10-09T19:08:15.128Z,3.25
2022-10-09T19:10:45.316Z,3.33
2022-10-09T19:13:15.377Z,2.90
2022-10-09T19:15:45.561Z,3.30
2022-10-09T19:18:15.744Z,4.90
2022-10-09T19:20:48.568Z,3.08
2022-10-09T19:23:18.841Z,3.22
2022-10-09T19:25:51.014Z,3.70
2022-10-09T19:28:22.037Z,3.13
2022-10-09T19:30:52.901Z,4.32
2022-10-09T19:33:23.044Z,4.53
2022-10-09T19:35:57.792Z,4.38
2022-10-09T19:38:29.671Z,5.50
2022-10-09T19:41:05.769Z,3.72
2022-10-09T19:43:36.359Z,3.80
2022-10-09T19:46:08.322Z,4.43
2022-10-09T19:48:38.709Z,4.93
2022-10-09T19:51:13.357Z,5.63
2022-10-09T19:53:43.759Z,5.32
2022-10-09T19:56:16.440Z,4.25
2022-10-09T19:58:48.101Z,6.78
2022-10-09T20:01:21.123Z,5.07
2022-10-09T20:03:56.067Z,7.00
2022-10-09T20:06:29.556Z,6.40
2022-10-09T20:09:00.256Z,3.80
2022-10-09T20:11:30.402Z,4.75
2022-10-09T20:14:01.723Z,4.28
2022-10-09T20:16:33.701Z,5.53
2022-10-09T20:19:05.676Z,4.45
2022-10-09T20:21:38.574Z,6.63
2022-10-09T20:24:09.786Z,6.18
2022-10-09T20:26:43.163Z,4.40
2022-10-09T20:29:13.877Z,4.07
2022-10-09T20:31:44.499Z,4.40
2022-10-09T20:34:14.690Z,4.68
2022-10-09T20:36:47.966Z,6.20
2022-10-09T20:39:19.730Z,4.10
2022-10-09T20:41:50.858Z,4.07
2022-10-09T20:44:21.021Z,4.20
2022-10-09T20:46:53.382Z,4.20
2022-10-09T20:49:23.647Z,6.35
2022-10-09T20:51:56.959Z,4.25
2022-10-09T20:54:30.559Z,3.60
2022-10-09T20:57:01.363Z,6.78
2022-10-09T20:59:31.497Z,4.28
2022-10-09T21:02:01.589Z,4.82
2022-10-09T21:04:32.288Z,5.05
2022-10-09T21:07:05.043Z,5.15
2022-10-09T21:09:35.398Z,6.60
2022-10-09T21:12:07.043Z,4.53
2022-10-09T21:14:37.205Z,5.53
2022-10-09T21:17:07.302Z,3.50
2022-10-09T21:19:40.442Z,4.68
2022-10-09T21:22:13.088Z,3.90
2022-10-09T21:24:43.285Z,4.22
2022-10-09T21:27:13.400Z,4.93
2022-10-09T21:29:43.576Z,5.50
2022-10-09T21:32:13.717Z,4.90
2022-10-09T21:34:43.895Z,6.90
2022-10-09T21:37:21.514Z,4.45
2022-10-09T21:39:52.461Z,4.72
2022-10-09T21:42:22.642Z,4.70
2022-10-09T21:44:52.701Z,6.25
2022-10-09T21:47:22.879Z,3.97
2022-10-09T21:49:53.327Z,5.20
2022-10-09T21:52:26.041Z,3.83
2022-10-09T21:54:56.237Z,5.60
2022-10-09T21:57:26.418Z,6.80
2022-10-09T21:59:58.991Z,4.40
2022-10-09T22:02:29.061Z,8.27
2022-10-09T22:04:59.170Z,6.32
2022-10-09T22:07:33.162Z,5.55
2022-10-09T22:10:03.495Z,4.60
2022-10-09T22:12:33.835Z,3.53
2022-10-09T22:15:04.056Z,6.28
2022-10-09T22:17:34.206Z,4.07
2022-10-09T22:20:04.337Z,3.63
2022-10-09T22:22:37.115Z,6.53
2022-10-09T22:25:08.231Z,4.72
2022-10-09T22:27:38.414Z,4.97
2022-10-09T22:30:10.254Z,5.05
2022-10-09T22:32:40.395Z,3.88
2022-10-09T22:35:11.472Z,4.80
2022-10-09T22:37:44.201Z,4.38
2022-10-09T22:40:14.441Z,4.07
2022-10-09T22:42:44.513Z,4.60
2022-10-09T22:45:14.618Z,5.47
2022-10-09T22:47:44.738Z,5.57
2022-10-09T22:50:14.808Z,4.95
2022-10-09T22:52:47.564Z,5.28
2022-10-09T22:55:18.012Z,4.35
2022-10-09T22:57:48.082Z,4.70
2022-10-09T23:00:19.006Z,4.30
2022-10-09T23:02:49.257Z,3.70
2022-10-09T23:05:19.770Z,4.28
2022-10-09T23:07:52.553Z,3.78
2022-10-09T23:10:22.688Z,4.15
2022-10-09T23:12:53.176Z,4.18
2022-10-09T23:15:23.456Z,4.82
2022-10-09T23:17:53.770Z,3.42
2022-10-09T23:20:23.906Z,4.85
2022-10-09T23:22:56.790Z,4.43
2022-10-09T23:25:26.879Z,11.77
2022-10-09T23:27:57.000Z,3.60
2022-10-09T23:30:27.184Z,3.55
2022-10-09T23:32:57.293Z,4.80
2022-10-09T23:35:29.999Z,3.53
2022-10-09T23:38:02.731Z,3.33
2022-10-09T23:40:32.793Z,3.20
2022-10-09T23:43:02.925Z,6.38
2022-10-09T23:45:33.057Z,6.00
2022-10-09T23:48:03.182Z,4.20
2022-10-09T23:50:33.339Z,3.70
2022-10-09T23:53:06.068Z,4.03
2022-10-09T23:55:36.075Z,5.38
2022-10-09T23:58:06.277Z,4.75
